sensor_id;sensor_type;location;lat;lon;timestamp;noise_LAeq;noise_LA_min;noise_LA_max;noise_LA01;noise_LA95
49568;Laerm;35474;51.032;6.998;2023-07-28T00:00:34;55.20;42.16;81.54;;
49568;Laerm;35474;51.032;6.998;2023-07-28T00:03:01;46.08;41.75;66.74;;
49568;Laerm;35474;51.032;6.998;2023-07-28T00:05:28;44.33;41.81;48.74;;
49568;Laerm;35474;51.032;6.998;2023-07-28T00:07:54;45.01;41.89;60.89;;
49568;Laerm;35474;51.032;6.998;2023-07-28T00:10:21;44.92;41.75;62.43;;
49568;Laerm;35474;51.032;6.998;2023-07-28T00:12:47;55.84;42.65;71.31;;
49568;Laerm;35474;51.032;6.998;2023-07-28T00:15:14;51.98;42.98;65.79;;
49568;Laerm;35474;51.032;6.998;2023-07-28T00:17:40;45.04;42.65;53.71;;
49568;Laerm;35474;51.032;6.998;2023-07-28T00:20:09;55.59;42.22;71.02;;
49568;Laerm;35474;51.032;6.998;2023-07-28T00:22:36;51.09;41.14;67.05;;
49568;Laerm;35474;51.032;6.998;2023-07-28T00:25:02;44.94;42.03;60.01;;
49568;Laerm;35474;51.032;6.998;2023-07-28T00:27:29;53.29;42.41;69.20;;
49568;Laerm;35474;51.032;6.998;2023-07-28T00:29:55;54.07;42.98;74.07;;
49568;Laerm;35474;51.032;6.998;2023-07-28T00:32:22;45.27;42.03;61.32;;
49568;Laerm;35474;51.032;6.998;2023-07-28T00:34:48;48.04;42.35;69.04;;
49568;Laerm;35474;51.032;6.998;2023-07-28T00:37:15;50.90;42.09;74.99;;
49568;Laerm;35474;51.032;6.998;2023-07-28T00:39:41;44.99;42.93;48.71;;
49568;Laerm;35474;51.032;6.998;2023-07-28T00:42:08;45.14;43.04;65.00;;
49568;Laerm;35474;51.032;6.998;2023-07-28T00:44:36;45.17;42.53;61.26;;
49568;Laerm;35474;51.032;6.998;2023-07-28T00:47:02;45.02;40.80;62.34;;
49568;Laerm;35474;51.032;6.998;2023-07-28T00:49:29;44.70;42.41;50.96;;
49568;Laerm;35474;51.032;6.998;2023-07-28T00:51:56;53.78;41.82;69.16;;
49568;Laerm;35474;51.032;6.998;2023-07-28T00:54:23;44.68;42.76;47.36;;
49568;Laerm;35474;51.032;6.998;2023-07-28T00:56:49;44.71;43.14;49.19;;
49568;Laerm;35474;51.032;6.998;2023-07-28T00:59:18;44.48;42.82;48.13;;
49568;Laerm;35474;51.032;6.998;2023-07-28T01:01:44;44.39;42.76;51.70;;
49568;Laerm;35474;51.032;6.998;2023-07-28T01:04:11;44.53;42.71;49.74;;
49568;Laerm;35474;51.032;6.998;2023-07-28T01:06:52;44.69;42.16;63.33;;
49568;Laerm;35474;51.032;6.998;2023-07-28T01:09:24;51.86;42.82;66.00;;
49568;Laerm;35474;51.032;6.998;2023-07-28T01:11:54;44.54;42.71;46.73;;
49568;Laerm;35474;51.032;6.998;2023-07-28T01:14:20;59.47;42.88;78.99;;
49568;Laerm;35474;51.032;6.998;2023-07-28T01:16:47;44.50;42.79;46.64;;
49568;Laerm;35474;51.032;6.998;2023-07-28T01:19:16;53.61;42.79;67.87;;
49568;Laerm;35474;51.032;6.998;2023-07-28T01:21:47;44.83;43.04;49.15;;
49568;Laerm;35474;51.032;6.998;2023-07-28T01:26:45;55.01;42.82;72.44;;
49568;Laerm;35474;51.032;6.998;2023-07-28T01:29:13;52.70;42.29;66.92;;
49568;Laerm;35474;51.032;6.998;2023-07-28T01:31:41;44.32;41.96;51.99;;
49568;Laerm;35474;51.032;6.998;2023-07-28T01:34:08;44.44;41.68;57.03;;
49568;Laerm;35474;51.032;6.998;2023-07-28T01:36:35;44.46;40.62;57.44;;
49568;Laerm;35474;51.032;6.998;2023-07-28T01:39:02;44.56;40.45;61.08;;
49568;Laerm;35474;51.032;6.998;2023-07-28T01:41:29;45.16;41.14;61.55;;
49568;Laerm;35474;51.032;6.998;2023-07-28T01:43:55;51.18;41.06;67.61;;
49568;Laerm;35474;51.032;6.998;2023-07-28T01:46:22;52.07;42.09;64.73;;
49568;Laerm;35474;51.032;6.998;2023-07-28T01:48:49;51.47;41.89;67.19;;
49568;Laerm;35474;51.032;6.998;2023-07-28T01:51:15;45.25;42.16;64.81;;
49568;Laerm;35474;51.032;6.998;2023-07-28T01:53:43;62.14;41.96;90.64;;
49568;Laerm;35474;51.032;6.998;2023-07-28T01:56:10;56.93;40.89;77.55;;
49568;Laerm;35474;51.032;6.998;2023-07-28T01:58:36;62.45;41.30;89.16;;
49568;Laerm;35474;51.032;6.998;2023-07-28T02:01:03;61.11;40.89;82.39;;
49568;Laerm;35474;51.032;6.998;2023-07-28T02:03:29;53.22;41.30;79.66;;
49568;Laerm;35474;51.032;6.998;2023-07-28T02:05:56;54.50;41.38;71.08;;
49568;Laerm;35474;51.032;6.998;2023-07-28T02:08:23;52.25;41.61;67.74;;
49568;Laerm;35474;51.032;6.998;2023-07-28T02:10:49;52.42;41.22;64.56;;
49568;Laerm;35474;51.032;6.998;2023-07-28T02:13:16;44.96;39.92;62.29;;
49568;Laerm;35474;51.032;6.998;2023-07-28T02:15:42;57.53;41.61;73.34;;
49568;Laerm;35474;51.032;6.998;2023-07-28T02:18:09;52.31;42.30;73.54;;
49568;Laerm;35474;51.032;6.998;2023-07-28T02:20:35;60.39;42.41;72.40;;
49568;Laerm;35474;51.032;6.998;2023-07-28T02:23:02;47.13;42.58;59.53;;
49568;Laerm;35474;51.032;6.998;2023-07-28T02:25:29;51.12;43.49;61.65;;
49568;Laerm;35474;51.032;6.998;2023-07-28T02:27:56;53.01;42.59;71.93;;
49568;Laerm;35474;51.032;6.998;2023-07-28T02:30:22;55.89;42.16;69.86;;
49568;Laerm;35474;51.032;6.998;2023-07-28T02:32:49;48.14;43.14;61.91;;
49568;Laerm;35474;51.032;6.998;2023-07-28T02:35:15;57.14;43.14;71.36;;
49568;Laerm;35474;51.032;6.998;2023-07-28T02:37:46;58.11;43.90;74.39;;
49568;Laerm;35474;51.032;6.998;2023-07-28T02:40:13;63.14;46.64;73.62;;
49568;Laerm;35474;51.032;6.998;2023-07-28T02:42:39;56.15;43.94;69.37;;
49568;Laerm;35474;51.032;6.998;2023-07-28T02:45:06;56.09;43.90;68.60;;
49568;Laerm;35474;51.032;6.998;2023-07-28T02:47:33;53.01;43.68;68.79;;
49568;Laerm;35474;51.032;6.998;2023-07-28T02:49:59;54.84;44.07;72.60;;
49568;Laerm;35474;51.032;6.998;2023-07-28T02:52:26;57.08;43.54;68.76;;
49568;Laerm;35474;51.032;6.998;2023-07-28T02:54:52;47.56;43.63;57.74;;
49568;Laerm;35474;51.032;6.998;2023-07-28T02:57:19;56.49;43.94;68.67;;
49568;Laerm;35474;51.032;6.998;2023-07-28T02:59:45;58.23;43.94;71.10;;
49568;Laerm;35474;51.032;6.998;2023-07-28T03:02:12;54.98;43.63;77.47;;
49568;Laerm;35474;51.032;6.998;2023-07-28T03:04:38;63.32;44.11;75.39;;
49568;Laerm;35474;51.032;6.998;2023-07-28T03:07:05;64.13;45.69;73.66;;
49568;Laerm;35474;51.032;6.998;2023-07-28T03:09:31;61.74;44.03;71.42;;
49568;Laerm;35474;51.032;6.998;2023-07-28T03:11:58;59.22;44.19;70.91;;
49568;Laerm;35474;51.032;6.998;2023-07-28T03:14:24;57.21;44.43;72.80;;
49568;Laerm;35474;51.032;6.998;2023-07-28T03:16:51;59.12;43.72;69.67;;
49568;Laerm;35474;51.032;6.998;2023-07-28T03:19:18;63.46;44.62;74.90;;
49568;Laerm;35474;51.032;6.998;2023-07-28T03:21:44;60.89;44.19;71.25;;
49568;Laerm;35474;51.032;6.998;2023-07-28T03:24:11;62.70;44.39;73.33;;
49568;Laerm;35474;51.032;6.998;2023-07-28T03:26:37;63.71;45.17;73.69;;
49568;Laerm;35474;51.032;6.998;2023-07-28T03:29:04;63.16;44.35;72.85;;
49568;Laerm;35474;51.032;6.998;2023-07-28T03:31:30;61.86;45.07;72.64;;
49568;Laerm;35474;51.032;6.998;2023-07-28T03:33:57;63.09;46.13;73.56;;
49568;Laerm;35474;51.032;6.998;2023-07-28T03:36:24;61.46;46.50;76.05;;
49568;Laerm;35474;51.032;6.998;2023-07-28T03:38:50;63.37;45.11;72.41;;
49568;Laerm;35474;51.032;6.998;2023-07-28T03:41:17;62.41;45.69;74.16;;
49568;Laerm;35474;51.032;6.998;2023-07-28T03:43:43;64.44;46.59;73.30;;
49568;Laerm;35474;51.032;6.998;2023-07-28T03:46:10;66.06;50.07;73.46;;
49568;Laerm;35474;51.032;6.998;2023-07-28T03:48:37;64.90;46.02;74.65;;
49568;Laerm;35474;51.032;6.998;2023-07-28T03:51:03;64.83;47.22;76.26;;
49568;Laerm;35474;51.032;6.998;2023-07-28T03:53:30;62.82;45.91;79.07;;
49568;Laerm;35474;51.032;6.998;2023-07-28T03:55:57;65.35;47.16;73.53;;
49568;Laerm;35474;51.032;6.998;2023-07-28T03:58:25;59.50;45.60;70.47;;
49568;Laerm;35474;51.032;6.998;2023-07-28T04:00:52;63.06;44.97;72.91;;
49568;Laerm;35474;51.032;6.998;2023-07-28T04:03:19;63.69;45.39;72.92;;
49568;Laerm;35474;51.032;6.998;2023-07-28T04:05:48;66.70;45.94;74.24;;
49568;Laerm;35474;51.032;6.998;2023-07-28T04:08:14;65.11;46.48;74.21;;
49568;Laerm;35474;51.032;6.998;2023-07-28T04:10:41;64.89;45.27;75.07;;
49568;Laerm;35474;51.032;6.998;2023-07-28T04:13:08;64.70;44.94;75.09;;
49568;Laerm;35474;51.032;6.998;2023-07-28T04:15:34;65.76;46.52;74.77;;
49568;Laerm;35474;51.032;6.998;2023-07-28T04:18:01;62.93;45.86;71.71;;
49568;Laerm;35474;51.032;6.998;2023-07-28T04:20:28;63.69;45.72;72.97;;
49568;Laerm;35474;51.032;6.998;2023-07-28T04:22:54;64.37;46.15;73.08;;
49568;Laerm;35474;51.032;6.998;2023-07-28T04:25:21;62.36;45.01;73.03;;
49568;Laerm;35474;51.032;6.998;2023-07-28T04:27:47;64.75;45.36;73.51;;
49568;Laerm;35474;51.032;6.998;2023-07-28T04:30:14;63.10;45.94;72.91;;
49568;Laerm;35474;51.032;6.998;2023-07-28T04:32:40;67.09;46.97;73.53;;
49568;Laerm;35474;51.032;6.998;2023-07-28T04:35:07;63.43;46.73;72.64;;
49568;Laerm;35474;51.032;6.998;2023-07-28T04:37:34;64.07;46.25;72.51;;
49568;Laerm;35474;51.032;6.998;2023-07-28T04:40:01;66.81;48.00;72.56;;
49568;Laerm;35474;51.032;6.998;2023-07-28T04:42:27;64.72;45.91;73.10;;
49568;Laerm;35474;51.032;6.998;2023-07-28T04:44:54;69.16;51.60;87.69;;
49568;Laerm;35474;51.032;6.998;2023-07-28T04:47:20;67.43;57.34;73.30;;
49568;Laerm;35474;51.032;6.998;2023-07-28T04:49:47;65.35;50.18;75.04;;
49568;Laerm;35474;51.032;6.998;2023-07-28T04:52:14;67.58;50.32;88.02;;
49568;Laerm;35474;51.032;6.998;2023-07-28T04:54:40;65.68;51.33;84.70;;
49568;Laerm;35474;51.032;6.998;2023-07-28T04:57:07;67.43;45.94;85.30;;
49568;Laerm;35474;51.032;6.998;2023-07-28T04:59:34;65.78;47.12;80.91;;
49568;Laerm;35474;51.032;6.998;2023-07-28T05:02:00;65.31;47.30;76.44;;
49568;Laerm;35474;51.032;6.998;2023-07-28T05:04:27;68.41;48.08;87.03;;
49568;Laerm;35474;51.032;6.998;2023-07-28T05:06:54;67.47;49.91;76.51;;
49568;Laerm;35474;51.032;6.998;2023-07-28T05:09:20;66.30;50.69;73.82;;
49568;Laerm;35474;51.032;6.998;2023-07-28T05:11:47;68.10;57.91;82.18;;
49568;Laerm;35474;51.032;6.998;2023-07-28T05:14:14;66.43;49.83;74.84;;
49568;Laerm;35474;51.032;6.998;2023-07-28T05:16:43;66.71;44.80;76.46;;
49568;Laerm;35474;51.032;6.998;2023-07-28T05:19:10;66.33;46.69;79.97;;
49568;Laerm;35474;51.032;6.998;2023-07-28T05:21:36;69.00;46.07;84.70;;
49568;Laerm;35474;51.032;6.998;2023-07-28T05:24:03;66.38;50.47;74.42;;
49568;Laerm;35474;51.032;6.998;2023-07-28T05:26:29;66.60;48.28;78.86;;
49568;Laerm;35474;51.032;6.998;2023-07-28T05:28:56;66.49;48.64;75.83;;
49568;Laerm;35474;51.032;6.998;2023-07-28T05:31:22;67.47;48.00;86.90;;
49568;Laerm;35474;51.032;6.998;2023-07-28T05:33:49;67.58;46.43;79.05;;
49568;Laerm;35474;51.032;6.998;2023-07-28T05:36:15;65.93;45.69;84.61;;
49568;Laerm;35474;51.032;6.998;2023-07-28T05:38:42;66.11;45.27;74.16;;
49568;Laerm;35474;51.032;6.998;2023-07-28T05:41:08;65.55;45.99;74.19;;
49568;Laerm;35474;51.032;6.998;2023-07-28T05:43:35;66.07;48.13;73.01;;
49568;Laerm;35474;51.032;6.998;2023-07-28T05:46:01;66.75;49.66;74.80;;
49568;Laerm;35474;51.032;6.998;2023-07-28T05:48:28;65.53;46.50;80.36;;
49568;Laerm;35474;51.032;6.998;2023-07-28T05:50:55;66.94;51.94;79.12;;
49568;Laerm;35474;51.032;6.998;2023-07-28T05:53:21;65.46;48.87;77.98;;
49568;Laerm;35474;51.032;6.998;2023-07-28T05:55:48;67.19;48.58;86.91;;
49568;Laerm;35474;51.032;6.998;2023-07-28T05:58:15;67.71;55.89;82.88;;
49568;Laerm;35474;51.032;6.998;2023-07-28T06:00:41;66.51;54.17;76.47;;
49568;Laerm;35474;51.032;6.998;2023-07-28T06:03:09;66.39;46.43;79.35;;
49568;Laerm;35474;51.032;6.998;2023-07-28T06:05:38;65.17;47.16;77.76;;
49568;Laerm;35474;51.032;6.998;2023-07-28T06:08:05;62.90;45.27;74.38;;
49568;Laerm;35474;51.032;6.998;2023-07-28T06:10:34;63.87;47.22;79.57;;
49568;Laerm;35474;51.032;6.998;2023-07-28T06:13:00;65.21;57.73;75.86;;
49568;Laerm;35474;51.032;6.998;2023-07-28T06:15:29;65.97;51.50;73.82;;
49568;Laerm;35474;51.032;6.998;2023-07-28T06:17:58;64.15;45.54;73.64;;
49568;Laerm;35474;51.032;6.998;2023-07-28T06:20:25;66.33;50.08;79.10;;
49568;Laerm;35474;51.032;6.998;2023-07-28T06:22:52;62.49;46.50;75.35;;
49568;Laerm;35474;51.032;6.998;2023-07-28T06:25:18;64.76;47.34;72.16;;
49568;Laerm;35474;51.032;6.998;2023-07-28T06:27:45;65.57;47.67;77.45;;
49568;Laerm;35474;51.032;6.998;2023-07-28T06:32:34;65.64;51.73;73.52;;
49568;Laerm;35474;51.032;6.998;2023-07-28T06:35:01;66.65;44.65;76.70;;
49568;Laerm;35474;51.032;6.998;2023-07-28T06:37:29;66.48;45.57;80.02;;
49568;Laerm;35474;51.032;6.998;2023-07-28T06:39:56;65.94;45.48;74.19;;
49568;Laerm;35474;51.032;6.998;2023-07-28T06:42:22;65.74;45.01;87.31;;
49568;Laerm;35474;51.032;6.998;2023-07-28T06:44:50;66.77;53.94;76.83;;
49568;Laerm;35474;51.032;6.998;2023-07-28T06:47:18;66.03;49.88;74.32;;
49568;Laerm;35474;51.032;6.998;2023-07-28T06:49:45;64.84;46.48;80.96;;
49568;Laerm;35474;51.032;6.998;2023-07-28T06:52:11;66.18;46.20;74.84;;
49568;Laerm;35474;51.032;6.998;2023-07-28T06:54:38;65.57;50.41;71.92;;
49568;Laerm;35474;51.032;6.998;2023-07-28T06:57:05;68.13;45.27;89.50;;
49568;Laerm;35474;51.032;6.998;2023-07-28T06:59:33;66.43;46.52;82.70;;
49568;Laerm;35474;51.032;6.998;2023-07-28T07:01:59;64.22;45.51;78.21;;
49568;Laerm;35474;51.032;6.998;2023-07-28T07:04:26;66.23;49.51;81.85;;
49568;Laerm;35474;51.032;6.998;2023-07-28T07:06:53;66.80;48.23;75.73;;
49568;Laerm;35474;51.032;6.998;2023-07-28T07:09:19;66.40;45.51;75.61;;
49568;Laerm;35474;51.032;6.998;2023-07-28T07:11:46;66.89;50.69;75.77;;
49568;Laerm;35474;51.032;6.998;2023-07-28T07:14:13;64.06;52.50;75.06;;
49568;Laerm;35474;51.032;6.998;2023-07-28T07:16:40;66.73;46.95;74.42;;
49568;Laerm;35474;51.032;6.998;2023-07-28T07:19:07;63.71;51.79;71.53;;
49568;Laerm;35474;51.032;6.998;2023-07-28T07:21:35;66.26;50.16;72.96;;
49568;Laerm;35474;51.032;6.998;2023-07-28T07:24:03;63.73;49.29;75.75;;
49568;Laerm;35474;51.032;6.998;2023-07-28T07:26:30;66.16;54.38;73.81;;
49568;Laerm;35474;51.032;6.998;2023-07-28T07:29:00;66.49;51.69;74.77;;
49568;Laerm;35474;51.032;6.998;2023-07-28T07:31:26;66.00;53.21;82.37;;
49568;Laerm;35474;51.032;6.998;2023-07-28T07:33:53;65.52;51.46;77.45;;
49568;Laerm;35474;51.032;6.998;2023-07-28T07:36:20;65.76;51.93;75.26;;
49568;Laerm;35474;51.032;6.998;2023-07-28T07:38:47;64.32;52.64;72.15;;
49568;Laerm;35474;51.032;6.998;2023-07-28T07:41:15;63.80;45.83;72.11;;
49568;Laerm;35474;51.032;6.998;2023-07-28T07:43:48;65.31;46.55;73.75;;
49568;Laerm;35474;51.032;6.998;2023-07-28T07:46:16;66.29;54.19;74.98;;
49568;Laerm;35474;51.032;6.998;2023-07-28T07:48:42;66.98;48.28;79.90;;
49568;Laerm;35474;51.032;6.998;2023-07-28T07:51:09;66.46;48.96;75.41;;
49568;Laerm;35474;51.032;6.998;2023-07-28T07:53:38;66.57;53.65;76.12;;
49568;Laerm;35474;51.032;6.998;2023-07-28T07:56:05;66.50;46.10;73.90;;
49568;Laerm;35474;51.032;6.998;2023-07-28T07:58:32;66.36;55.65;74.57;;
49568;Laerm;35474;51.032;6.998;2023-07-28T08:01:00;66.68;54.55;84.78;;
49568;Laerm;35474;51.032;6.998;2023-07-28T08:03:26;65.59;49.38;78.16;;
49568;Laerm;35474;51.032;6.998;2023-07-28T08:05:53;65.82;56.74;76.45;;
49568;Laerm;35474;51.032;6.998;2023-07-28T08:08:21;66.88;48.63;74.65;;
49568;Laerm;35474;51.032;6.998;2023-07-28T08:10:51;64.26;45.66;80.76;;
49568;Laerm;35474;51.032;6.998;2023-07-28T08:13:18;66.60;51.67;74.12;;
49568;Laerm;35474;51.032;6.998;2023-07-28T08:15:46;64.90;50.35;76.12;;
49568;Laerm;35474;51.032;6.998;2023-07-28T08:18:12;67.80;55.30;86.96;;
49568;Laerm;35474;51.032;6.998;2023-07-28T08:20:39;64.92;48.32;79.80;;
49568;Laerm;35474;51.032;6.998;2023-07-28T08:23:06;64.77;45.17;74.23;;
49568;Laerm;35474;51.032;6.998;2023-07-28T08:25:33;65.78;48.54;74.63;;
49568;Laerm;35474;51.032;6.998;2023-07-28T08:28:01;65.22;50.20;72.96;;
49568;Laerm;35474;51.032;6.998;2023-07-28T08:30:28;64.08;45.75;72.54;;
49568;Laerm;35474;51.032;6.998;2023-07-28T08:32:54;64.30;53.68;77.37;;
49568;Laerm;35474;51.032;6.998;2023-07-28T08:35:21;66.14;48.02;85.25;;
49568;Laerm;35474;51.032;6.998;2023-07-28T08:37:48;65.36;52.00;76.20;;
49568;Laerm;35474;51.032;6.998;2023-07-28T08:40:14;63.92;49.50;79.23;;
49568;Laerm;35474;51.032;6.998;2023-07-28T08:42:41;65.73;52.17;73.39;;
49568;Laerm;35474;51.032;6.998;2023-07-28T08:45:08;65.23;47.55;80.21;;
49568;Laerm;35474;51.032;6.998;2023-07-28T08:47:36;65.90;46.91;74.61;;
49568;Laerm;35474;51.032;6.998;2023-07-28T08:50:04;66.23;46.18;74.50;;
49568;Laerm;35474;51.032;6.998;2023-07-28T08:52:32;65.53;53.69;76.45;;
49568;Laerm;35474;51.032;6.998;2023-07-28T08:54:59;65.86;52.45;76.73;;
49568;Laerm;35474;51.032;6.998;2023-07-28T08:57:27;65.65;50.09;75.16;;
49568;Laerm;35474;51.032;6.998;2023-07-28T08:59:54;66.26;53.63;77.91;;
49568;Laerm;35474;51.032;6.998;2023-07-28T09:02:21;65.19;52.19;72.44;;
49568;Laerm;35474;51.032;6.998;2023-07-28T09:04:48;65.63;45.20;71.98;;
49568;Laerm;35474;51.032;6.998;2023-07-28T09:07:15;65.06;45.33;75.08;;
49568;Laerm;35474;51.032;6.998;2023-07-28T09:09:42;65.18;48.43;73.19;;
49568;Laerm;35474;51.032;6.998;2023-07-28T09:12:09;64.66;51.49;71.94;;
49568;Laerm;35474;51.032;6.998;2023-07-28T09:14:36;64.99;50.58;73.61;;
49568;Laerm;35474;51.032;6.998;2023-07-28T09:17:11;64.89;48.54;72.32;;
49568;Laerm;35474;51.032;6.998;2023-07-28T09:19:59;65.32;47.90;76.60;;
49568;Laerm;35474;51.032;6.998;2023-07-28T09:22:29;63.33;45.42;74.33;;
49568;Laerm;35474;51.032;6.998;2023-07-28T09:24:56;65.35;44.80;71.93;;
49568;Laerm;35474;51.032;6.998;2023-07-28T09:27:24;64.15;45.91;73.85;;
49568;Laerm;35474;51.032;6.998;2023-07-28T09:29:53;62.84;46.15;72.36;;
49568;Laerm;35474;51.032;6.998;2023-07-28T09:32:32;64.90;52.28;71.99;;
49568;Laerm;35474;51.032;6.998;2023-07-28T09:35:13;64.25;47.28;74.15;;
49568;Laerm;35474;51.032;6.998;2023-07-28T09:37:44;65.30;54.27;76.67;;
49568;Laerm;35474;51.032;6.998;2023-07-28T09:40:13;65.59;52.67;76.61;;
49568;Laerm;35474;51.032;6.998;2023-07-28T09:42:41;63.66;46.64;82.33;;
49568;Laerm;35474;51.032;6.998;2023-07-28T09:45:09;64.76;50.55;78.51;;
49568;Laerm;35474;51.032;6.998;2023-07-28T09:47:55;64.99;53.73;77.54;;
49568;Laerm;35474;51.032;6.998;2023-07-28T09:50:24;65.51;46.62;75.08;;
49568;Laerm;35474;51.032;6.998;2023-07-28T09:52:54;65.90;52.80;73.12;;
49568;Laerm;35474;51.032;6.998;2023-07-28T09:55:24;64.86;52.88;72.16;;
49568;Laerm;35474;51.032;6.998;2023-07-28T09:57:52;65.46;52.92;72.68;;
49568;Laerm;35474;51.032;6.998;2023-07-28T10:00:21;64.68;51.43;73.25;;
49568;Laerm;35474;51.032;6.998;2023-07-28T10:02:49;65.58;51.37;73.21;;
49568;Laerm;35474;51.032;6.998;2023-07-28T10:05:17;63.05;50.37;68.87;;
49568;Laerm;35474;51.032;6.998;2023-07-28T10:07:45;64.49;50.29;71.54;;
49568;Laerm;35474;51.032;6.998;2023-07-28T10:10:14;65.58;54.51;72.38;;
49568;Laerm;35474;51.032;6.998;2023-07-28T10:12:45;64.52;52.63;70.46;;
49568;Laerm;35474;51.032;6.998;2023-07-28T10:15:14;65.19;48.45;72.44;;
49568;Laerm;35474;51.032;6.998;2023-07-28T10:17:47;64.85;43.68;72.51;;
49568;Laerm;35474;51.032;6.998;2023-07-28T10:20:42;64.89;44.65;74.46;;
49568;Laerm;35474;51.032;6.998;2023-07-28T10:23:14;65.32;51.16;72.67;;
49568;Laerm;35474;51.032;6.998;2023-07-28T10:25:43;65.53;52.86;72.42;;
49568;Laerm;35474;51.032;6.998;2023-07-28T10:30:59;65.40;50.97;73.53;;
49568;Laerm;35474;51.032;6.998;2023-07-28T10:33:36;66.31;52.66;73.27;;
49568;Laerm;35474;51.032;6.998;2023-07-28T10:36:15;65.08;51.90;71.29;;
49568;Laerm;35474;51.032;6.998;2023-07-28T10:38:42;66.25;56.93;77.70;;
49568;Laerm;35474;51.032;6.998;2023-07-28T10:41:15;65.75;53.86;73.72;;
49568;Laerm;35474;51.032;6.998;2023-07-28T10:43:44;66.58;52.49;73.17;;
49568;Laerm;35474;51.032;6.998;2023-07-28T10:46:15;66.94;55.44;81.47;;
49568;Laerm;35474;51.032;6.998;2023-07-28T10:48:44;66.17;52.09;83.52;;
49568;Laerm;35474;51.032;6.998;2023-07-28T10:51:21;68.72;52.99;85.57;;
49568;Laerm;35474;51.032;6.998;2023-07-28T10:53:54;69.57;58.36;77.39;;
49568;Laerm;35474;51.032;6.998;2023-07-28T10:56:21;69.46;54.84;80.70;;
49568;Laerm;35474;51.032;6.998;2023-07-28T10:58:59;69.38;56.87;74.13;;
49568;Laerm;35474;51.032;6.998;2023-07-28T11:01:33;68.50;50.61;75.24;;
49568;Laerm;35474;51.032;6.998;2023-07-28T11:04:21;68.04;47.59;75.01;;
49568;Laerm;35474;51.032;6.998;2023-07-28T11:06:50;67.70;50.91;74.75;;
49568;Laerm;35474;51.032;6.998;2023-07-28T11:09:21;67.53;46.23;75.13;;
49568;Laerm;35474;51.032;6.998;2023-07-28T11:11:49;67.09;46.80;75.28;;
49568;Laerm;35474;51.032;6.998;2023-07-28T11:14:17;66.23;51.04;73.95;;
49568;Laerm;35474;51.032;6.998;2023-07-28T11:16:45;66.07;56.38;75.41;;
49568;Laerm;35474;51.032;6.998;2023-07-28T11:19:14;66.37;45.57;74.97;;
49568;Laerm;35474;51.032;6.998;2023-07-28T11:21:42;65.91;45.04;73.33;;
49568;Laerm;35474;51.032;6.998;2023-07-28T11:24:09;65.32;44.58;73.95;;
49568;Laerm;35474;51.032;6.998;2023-07-28T11:26:37;66.36;49.35;71.95;;
49568;Laerm;35474;51.032;6.998;2023-07-28T11:29:05;66.18;49.87;73.90;;
49568;Laerm;35474;51.032;6.998;2023-07-28T11:31:33;65.87;53.95;72.84;;
49568;Laerm;35474;51.032;6.998;2023-07-28T11:34:00;65.74;47.70;73.69;;
49568;Laerm;35474;51.032;6.998;2023-07-28T11:36:29;66.21;53.69;73.87;;
49568;Laerm;35474;51.032;6.998;2023-07-28T11:38:58;64.96;52.33;71.88;;
49568;Laerm;35474;51.032;6.998;2023-07-28T11:41:25;66.73;50.04;72.67;;
49568;Laerm;35474;51.032;6.998;2023-07-28T11:43:53;65.46;45.66;75.36;;
49568;Laerm;35474;51.032;6.998;2023-07-28T11:46:40;66.16;54.43;74.08;;
49568;Laerm;35474;51.032;6.998;2023-07-28T11:49:09;66.14;52.74;72.46;;
49568;Laerm;35474;51.032;6.998;2023-07-28T11:51:43;64.94;46.10;71.52;;
49568;Laerm;35474;51.032;6.998;2023-07-28T11:54:14;68.90;50.98;90.70;;
49568;Laerm;35474;51.032;6.998;2023-07-28T11:56:43;66.94;53.55;74.82;;
49568;Laerm;35474;51.032;6.998;2023-07-28T11:59:11;65.33;49.27;73.43;;
49568;Laerm;35474;51.032;6.998;2023-07-28T12:01:55;65.19;45.27;82.66;;
49568;Laerm;35474;51.032;6.998;2023-07-28T12:04:25;66.55;52.85;76.09;;
49568;Laerm;35474;51.032;6.998;2023-07-28T12:07:05;66.72;46.35;81.58;;
49568;Laerm;35474;51.032;6.998;2023-07-28T12:12:29;65.64;49.15;74.85;;
49568;Laerm;35474;51.032;6.998;2023-07-28T12:14:57;64.87;47.52;74.62;;
49568;Laerm;35474;51.032;6.998;2023-07-28T12:17:33;66.54;52.17;78.93;;
49568;Laerm;35474;51.032;6.998;2023-07-28T12:20:05;66.84;52.26;81.45;;
49568;Laerm;35474;51.032;6.998;2023-07-28T12:22:38;66.01;53.62;79.58;;
49568;Laerm;35474;51.032;6.998;2023-07-28T12:25:05;65.47;50.73;71.27;;
49568;Laerm;35474;51.032;6.998;2023-07-28T12:27:32;68.40;51.33;85.05;;
49568;Laerm;35474;51.032;6.998;2023-07-28T12:29:59;65.61;46.10;78.36;;
49568;Laerm;35474;51.032;6.998;2023-07-28T12:32:30;66.93;48.40;85.28;;
49568;Laerm;35474;51.032;6.998;2023-07-28T12:34:59;65.98;46.93;84.04;;
49568;Laerm;35474;51.032;6.998;2023-07-28T12:37:40;68.26;47.91;83.94;;
49568;Laerm;35474;51.032;6.998;2023-07-28T12:40:11;66.26;46.25;85.23;;
49568;Laerm;35474;51.032;6.998;2023-07-28T12:42:58;65.43;51.03;82.09;;
49568;Laerm;35474;51.032;6.998;2023-07-28T12:45:28;66.42;46.38;84.38;;
49568;Laerm;35474;51.032;6.998;2023-07-28T12:48:15;67.73;53.61;83.83;;
49568;Laerm;35474;51.032;6.998;2023-07-28T12:50:44;65.05;45.01;78.42;;
49568;Laerm;35474;51.032;6.998;2023-07-28T12:53:11;66.54;53.78;88.39;;
49568;Laerm;35474;51.032;6.998;2023-07-28T12:55:44;68.01;53.58;82.31;;
49568;Laerm;35474;51.032;6.998;2023-07-28T12:58:13;68.24;56.40;89.62;;
49568;Laerm;35474;51.032;6.998;2023-07-28T13:00:43;66.55;47.50;76.38;;
49568;Laerm;35474;51.032;6.998;2023-07-28T13:03:13;65.55;53.01;73.21;;
49568;Laerm;35474;51.032;6.998;2023-07-28T13:05:40;66.70;58.76;72.14;;
49568;Laerm;35474;51.032;6.998;2023-07-28T13:08:10;65.55;49.69;77.45;;
49568;Laerm;35474;51.032;6.998;2023-07-28T13:10:37;64.47;46.23;72.38;;
49568;Laerm;35474;51.032;6.998;2023-07-28T13:13:07;66.37;54.34;72.68;;
49568;Laerm;35474;51.032;6.998;2023-07-28T13:15:39;65.15;49.39;76.94;;
49568;Laerm;35474;51.032;6.998;2023-07-28T13:18:06;69.88;50.51;91.18;;
49568;Laerm;35474;51.032;6.998;2023-07-28T13:20:33;67.79;60.89;83.24;;
49568;Laerm;35474;51.032;6.998;2023-07-28T13:22:59;66.26;48.63;84.17;;
49568;Laerm;35474;51.032;6.998;2023-07-28T13:25:26;72.28;47.00;95.15;;
49568;Laerm;35474;51.032;6.998;2023-07-28T13:27:52;70.03;51.62;92.13;;
49568;Laerm;35474;51.032;6.998;2023-07-28T13:30:19;67.03;55.37;81.97;;
49568;Laerm;35474;51.032;6.998;2023-07-28T13:32:46;65.98;55.66;75.16;;
49568;Laerm;35474;51.032;6.998;2023-07-28T13:35:13;65.67;47.72;73.84;;
49568;Laerm;35474;51.032;6.998;2023-07-28T13:37:41;66.30;48.19;76.74;;
49568;Laerm;35474;51.032;6.998;2023-07-28T13:40:07;65.27;48.73;76.57;;
49568;Laerm;35474;51.032;6.998;2023-07-28T13:42:38;64.92;50.82;75.23;;
49568;Laerm;35474;51.032;6.998;2023-07-28T13:45:05;65.45;51.60;76.00;;
49568;Laerm;35474;51.032;6.998;2023-07-28T13:47:31;63.85;45.94;72.29;;
49568;Laerm;35474;51.032;6.998;2023-07-28T13:49:58;67.40;47.30;78.71;;
49568;Laerm;35474;51.032;6.998;2023-07-28T13:52:25;65.65;49.44;72.95;;
49568;Laerm;35474;51.032;6.998;2023-07-28T13:54:52;65.00;44.94;71.53;;
49568;Laerm;35474;51.032;6.998;2023-07-28T13:57:21;66.57;49.41;85.01;;
49568;Laerm;35474;51.032;6.998;2023-07-28T13:59:48;69.52;48.60;93.50;;